createdAt,value
2023-05-04T00:01:46.047Z,62.21
2023-05-04T00:05:38.313Z,63.44
2023-05-04T00:09:02.861Z,63.48
2023-05-04T00:12:47.920Z,63.15
2023-05-04T00:15:59.847Z,62.78
2023-05-04T00:19:26.022Z,62.57
2023-05-04T00:22:33.248Z,62.21
2023-05-04T00:25:52.342Z,61.73
2023-05-04T00:28:56.431Z,61.43
2023-05-04T00:31:49.203Z,61.04
2023-05-04T00:35:08.263Z,60.78
2023-05-04T00:38:45.576Z,60.66
2023-05-04T00:41:49.051Z,60.40
2023-05-04T00:45:43.226Z,60.29
2023-05-04T00:49:22.596Z,60.20
2023-05-04T00:52:39.863Z,59.94
2023-05-04T00:56:21.684Z,59.84
2023-05-04T00:59:44.103Z,58.69
2023-05-04T01:03:44.817Z,57.73
2023-05-04T01:07:25.069Z,57.93
2023-05-04T01:11:30.189Z,58.42
2023-05-04T01:15:23.846Z,58.80
2023-05-04T01:19:33.257Z,59.21
2023-05-04T01:23:16.242Z,59.81
2023-05-04T01:26:56.145Z,60.40
2023-05-04T01:30:18.910Z,60.82
2023-05-04T01:34:18.213Z,62.42
2023-05-04T01:38:18.932Z,63.60
2023-05-04T01:42:08.736Z,63.60
2023-05-04T01:45:56.887Z,63.31
2023-05-04T01:49:30.755Z,62.99
2023-05-04T01:53:15.177Z,62.73
2023-05-04T01:57:24.751Z,62.48
2023-05-04T02:01:22.256Z,62.23
2023-05-04T02:05:24.573Z,61.95
2023-05-04T02:09:34.119Z,61.72
2023-05-04T02:13:36.412Z,61.46
2023-05-04T02:17:44.696Z,61.27
2023-05-04T02:21:18.328Z,61.06
2023-05-04T02:25:26.807Z,60.84
2023-05-04T02:29:28.882Z,60.63
2023-05-04T02:33:04.625Z,60.39
2023-05-04T02:37:14.292Z,60.15
2023-05-04T02:41:12.650Z,58.70
2023-05-04T02:44:54.844Z,57.94
2023-05-04T02:48:53.201Z,58.14
2023-05-04T02:52:34.018Z,58.60
2023-05-04T02:56:34.544Z,59.08
2023-05-04T03:00:44.148Z,59.43
2023-05-04T03:04:46.581Z,59.84
2023-05-04T03:08:31.102Z,60.29
2023-05-04T03:12:07.660Z,60.56
2023-05-04T03:16:09.766Z,61.03
2023-05-04T03:19:44.130Z,61.25
2023-05-04T03:23:19.549Z,62.59
2023-05-04T03:27:01.486Z,63.81
2023-05-04T03:30:12.973Z,63.75
2023-05-04T03:34:00.113Z,63.56
2023-05-04T03:37:46.996Z,63.19
2023-05-04T03:41:15.614Z,62.94
2023-05-04T03:44:25.371Z,62.46
2023-05-04T03:48:35.163Z,62.17
2023-05-04T03:52:17.624Z,61.75
2023-05-04T03:56:25.627Z,61.42
2023-05-04T03:59:58.167Z,61.10
2023-05-04T04:04:00.820Z,60.84
2023-05-04T04:07:46.776Z,60.51
2023-05-04T04:11:56.147Z,60.26
2023-05-04T04:15:46.786Z,59.97
2023-05-04T04:19:48.747Z,58.67
2023-05-04T04:23:24.662Z,57.96
2023-05-04T04:27:02.174Z,58.14
2023-05-04T04:30:25.679Z,58.73
2023-05-04T04:33:39.298Z,59.58
2023-05-04T04:37:29.483Z,59.76
2023-05-04T04:41:06.696Z,60.29
2023-05-04T04:44:51.723Z,60.84
2023-05-04T04:48:34.020Z,62.44
2023-05-04T04:52:04.024Z,63.44
2023-05-04T04:55:38.272Z,63.43
2023-05-04T04:59:47.948Z,63.37
2023-05-04T05:03:56.108Z,63.18
2023-05-04T05:08:05.523Z,62.86
2023-05-04T05:12:14.762Z,62.47
2023-05-04T05:16:09.355Z,62.07
2023-05-04T05:20:18.899Z,61.64
2023-05-04T05:24:21.010Z,61.14
2023-05-04T05:28:03.938Z,60.44
2023-05-04T05:31:53.392Z,58.80
2023-05-04T05:35:35.202Z,57.64
2023-05-04T05:39:21.939Z,57.39
2023-05-04T05:42:25.033Z,57.60
2023-05-04T05:45:48.830Z,58.06
2023-05-04T05:49:47.072Z,57.91
2023-05-04T05:53:56.451Z,57.96
2023-05-04T05:57:24.245Z,58.00
2023-05-04T06:00:55.556Z,58.18
2023-05-04T06:04:17.907Z,58.16
2023-05-04T06:08:22.484Z,57.91
2023-05-04T06:12:12.405Z,57.96
2023-05-04T06:15:27.185Z,58.24
2023-05-04T06:19:13.606Z,58.00
2023-05-04T06:23:23.253Z,57.76
2023-05-04T06:27:25.858Z,57.63
2023-05-04T06:31:18.310Z,57.30
2023-05-04T06:34:32.690Z,56.47
2023-05-04T06:37:54.537Z,56.07
2023-05-04T06:41:36.346Z,55.85
2023-05-04T06:45:39.601Z,55.96
2023-05-04T06:49:17.891Z,55.52
2023-05-04T06:52:42.674Z,55.09
2023-05-04T06:56:05.738Z,54.66
2023-05-04T06:59:23.656Z,54.25
2023-05-04T07:02:35.068Z,53.69
2023-05-04T07:06:17.346Z,53.31
2023-05-04T07:09:45.153Z,52.65
2023-05-04T07:13:54.600Z,52.09
2023-05-04T07:17:16.380Z,51.92
2023-05-04T07:20:31.722Z,52.13
2023-05-04T07:24:14.022Z,52.20
2023-05-04T07:27:38.134Z,52.19
2023-05-04T07:31:20.440Z,52.60
2023-05-04T07:34:54.821Z,53.39
2023-05-04T07:38:44.751Z,54.00
2023-05-04T07:42:54.345Z,54.31
2023-05-04T07:46:45.361Z,54.74
2023-05-04T07:50:41.583Z,55.05
2023-05-04T07:54:33.664Z,55.23
2023-05-04T07:57:51.496Z,55.50
2023-05-04T08:01:49.980Z,55.80
2023-05-04T08:05:41.321Z,55.81
2023-05-04T08:08:43.125Z,55.88
2023-05-04T08:12:28.390Z,55.79
2023-05-04T08:16:23.772Z,55.76
2023-05-04T08:20:04.332Z,55.60
2023-05-04T08:23:47.571Z,56.02
2023-05-04T08:27:07.861Z,56.46
2023-05-04T08:29:47.253Z,56.39
2023-05-04T08:32:59.442Z,56.30
2023-05-04T08:36:25.369Z,56.26
2023-05-04T08:39:47.916Z,56.30
2023-05-04T08:43:18.558Z,56.56
2023-05-04T08:46:53.913Z,56.68
2023-05-04T08:50:07.896Z,56.83
2023-05-04T08:53:28.544Z,57.17
2023-05-04T08:57:00.167Z,57.33
2023-05-04T09:00:29.713Z,57.35
2023-05-04T09:04:12.392Z,57.15
2023-05-04T09:07:51.958Z,57.08
2023-05-04T09:11:54.571Z,57.00
2023-05-04T09:15:19.789Z,57.32
2023-05-04T09:18:54.290Z,57.69
2023-05-04T09:22:20.016Z,58.15
2023-05-04T09:26:11.567Z,58.45
2023-05-04T09:29:49.700Z,58.56
2023-05-04T09:33:13.048Z,58.75
2023-05-04T09:36:55.673Z,58.62
2023-05-04T09:40:54.062Z,58.46
2023-05-04T09:43:57.819Z,58.23
2023-05-04T09:47:47.408Z,58.39
2023-05-04T09:51:19.544Z,58.30
2023-05-04T09:54:41.412Z,58.32
2023-05-04T09:58:19.279Z,58.01
2023-05-04T10:01:44.106Z,57.59
2023-05-04T10:05:21.618Z,57.61
2023-05-04T10:08:36.515Z,57.86
2023-05-04T10:12:15.499Z,57.78
2023-05-04T10:16:05.373Z,57.69
2023-05-04T10:20:07.347Z,57.57
2023-05-04T10:24:02.014Z,57.29
2023-05-04T10:27:32.369Z,56.87
2023-05-04T10:30:43.964Z,56.59
2023-05-04T10:34:25.280Z,56.03
2023-05-04T10:37:39.376Z,55.17
2023-05-04T10:41:20.478Z,55.22
2023-05-04T10:45:08.876Z,54.75
2023-05-04T10:49:08.724Z,54.45
2023-05-04T10:52:38.223Z,54.28
2023-05-04T10:55:47.898Z,54.12
2023-05-04T10:59:07.990Z,54.05
2023-05-04T11:03:02.447Z,53.70
2023-05-04T11:06:35.388Z,53.52
2023-05-04T11:09:26.709Z,53.27
2023-05-04T11:11:58.039Z,53.14
2023-05-04T11:15:06.088Z,52.96
2023-05-04T11:18:10.425Z,52.81
2023-05-04T11:21:42.196Z,53.02
2023-05-04T11:25:39.630Z,53.36
2023-05-04T11:29:15.965Z,53.37
2023-05-04T11:33:01.374Z,53.47
2023-05-04T11:36:50.578Z,53.41
2023-05-04T11:39:58.222Z,53.15
2023-05-04T11:43:01.467Z,53.47
2023-05-04T11:45:54.831Z,53.17
2023-05-04T11:49:26.217Z,53.61
2023-05-04T11:53:12.225Z,54.04
2023-05-04T11:56:08.494Z,54.36
2023-05-04T11:58:47.368Z,54.61
2023-05-04T12:01:54.826Z,54.72
2023-05-04T12:05:24.924Z,54.81
2023-05-04T12:09:06.249Z,54.88
2023-05-04T12:12:53.149Z,54.85
2023-05-04T12:16:29.049Z,54.75
2023-05-04T12:20:06.716Z,54.86
2023-05-04T12:23:05.135Z,55.21
2023-05-04T12:26:15.362Z,55.56
2023-05-04T12:29:09.877Z,55.78
2023-05-04T12:31:38.732Z,56.12
2023-05-04T12:34:29.432Z,56.23
2023-05-04T12:37:23.880Z,56.21
2023-05-04T12:43:02.414Z,56.08
2023-05-04T12:45:31.056Z,55.75
2023-05-04T12:48:23.174Z,55.23
2023-05-04T12:50:52.216Z,54.52
2023-05-04T12:53:30.232Z,54.23
2023-05-04T12:56:22.083Z,53.96
2023-05-04T12:59:22.748Z,53.69
2023-05-04T13:02:10.831Z,53.38
2023-05-04T13:05:19.541Z,52.39
2023-05-04T13:07:59.254Z,52.09
2023-05-04T13:11:19.752Z,51.63
2023-05-04T13:14:16.855Z,52.24
2023-05-04T13:17:15.766Z,52.54
2023-05-04T13:19:53.516Z,52.67
2023-05-04T13:22:22.996Z,52.53
2023-05-04T13:25:18.906Z,52.72
2023-05-04T13:27:58.983Z,52.81
2023-05-04T13:31:03.220Z,53.00
2023-05-04T13:34:00.720Z,52.87
2023-05-04T13:36:52.543Z,52.70
2023-05-04T13:39:51.385Z,52.21
2023-05-04T13:43:01.438Z,51.96
2023-05-04T13:45:41.740Z,52.14
2023-05-04T13:48:33.208Z,52.02
2023-05-04T13:51:36.555Z,52.03
2023-05-04T13:55:13.598Z,52.10
2023-05-04T13:58:58.057Z,52.16
2023-05-04T14:01:51.566Z,51.87
2023-05-04T14:05:22.883Z,51.47
2023-05-04T14:08:56.474Z,50.77
2023-05-04T14:11:39.022Z,50.70
2023-05-04T14:14:07.521Z,50.87
2023-05-04T14:16:42.507Z,50.69
2023-05-04T14:19:11.005Z,50.67
2023-05-04T14:21:42.389Z,50.72
2023-05-04T14:24:22.513Z,50.15
2023-05-04T14:26:51.336Z,50.18
2023-05-04T14:30:11.500Z,49.91
2023-05-04T14:32:41.241Z,49.76
2023-05-04T14:35:16.760Z,49.77
2023-05-04T14:37:49.527Z,48.96
2023-05-04T14:40:23.805Z,48.36
2023-05-04T14:42:59.870Z,48.10
2023-05-04T14:45:28.669Z,47.97
2023-05-04T14:48:12.223Z,48.01
2023-05-04T14:51:24.611Z,47.96
2023-05-04T14:55:34.013Z,48.53
2023-05-04T14:58:46.409Z,48.46
2023-05-04T15:02:02.958Z,48.47
2023-05-04T15:05:28.549Z,48.24
2023-05-04T15:09:13.277Z,47.99
2023-05-04T15:12:00.637Z,47.78
2023-05-04T15:15:32.470Z,47.64
2023-05-04T15:18:47.380Z,47.59
2023-05-04T15:22:57.027Z,47.35
2023-05-04T15:26:22.848Z,47.39
2023-05-04T15:30:06.256Z,46.90
2023-05-04T15:33:58.972Z,47.31
2023-05-04T15:37:58.139Z,46.79
2023-05-04T15:41:58.761Z,46.71
2023-05-04T15:45:57.014Z,46.78
2023-05-04T15:49:57.703Z,46.67
2023-05-04T15:53:33.060Z,46.33
2023-05-04T15:57:07.567Z,46.24
2023-05-04T16:00:39.726Z,45.59
2023-05-04T16:16:55.354Z,44.98
2023-05-04T16:20:54.935Z,45.30
2023-05-04T16:23:55.215Z,45.45
2023-05-04T16:27:46.274Z,45.56
2023-05-04T16:31:01.697Z,45.93
2023-05-04T16:33:49.178Z,45.66
2023-05-04T16:37:23.602Z,45.71
2023-05-04T16:40:43.325Z,46.15
2023-05-04T16:43:47.418Z,46.87
2023-05-04T16:47:09.053Z,47.56
2023-05-04T16:50:20.833Z,48.04
2023-05-04T16:54:09.824Z,48.70
2023-05-04T16:57:27.492Z,48.93
2023-05-04T17:00:46.981Z,49.35
2023-05-04T17:04:38.731Z,49.62
2023-05-04T17:07:42.222Z,49.79
2023-05-04T17:11:18.682Z,50.05
2023-05-04T17:14:42.025Z,50.29
2023-05-04T17:17:46.883Z,50.67
2023-05-04T17:21:16.826Z,51.04
2023-05-04T17:23:48.761Z,51.42
2023-05-04T17:26:23.215Z,51.89
2023-05-04T17:28:54.946Z,52.14
2023-05-04T17:31:35.289Z,52.44
2023-05-04T17:34:40.329Z,52.78
2023-05-04T17:37:38.041Z,52.86
2023-05-04T17:40:16.347Z,52.87
2023-05-04T17:42:51.034Z,54.05
2023-05-04T17:46:04.769Z,54.44
2023-05-04T17:49:23.286Z,55.14
2023-05-04T17:51:58.248Z,55.64
2023-05-04T17:54:39.108Z,56.59
2023-05-04T17:57:24.050Z,57.05
2023-05-04T17:59:52.594Z,57.36
2023-05-04T18:02:35.863Z,58.09
2023-05-04T18:05:32.666Z,58.46
2023-05-04T18:09:25.843Z,58.64
2023-05-04T18:12:39.883Z,58.93
2023-05-04T18:15:25.141Z,59.43
2023-05-04T18:18:17.358Z,59.92
2023-05-04T18:20:56.598Z,60.08
2023-05-04T18:23:53.470Z,60.42
2023-05-04T18:26:52.585Z,60.79
2023-05-04T18:29:48.636Z,62.07
2023-05-04T18:33:08.941Z,63.20
2023-05-04T18:38:09.180Z,63.59
2023-05-04T18:40:41.100Z,63.56
2023-05-04T18:43:49.011Z,63.35
2023-05-04T18:47:01.075Z,62.87
2023-05-04T18:49:54.986Z,61.88
2023-05-04T18:53:09.266Z,61.21
2023-05-04T18:55:38.204Z,60.78
2023-05-04T18:58:19.318Z,60.28
2023-05-04T19:00:57.727Z,60.13
2023-05-04T19:03:30.557Z,60.12
2023-05-04T19:06:23.153Z,60.00
2023-05-04T19:09:36.053Z,60.11
2023-05-04T19:13:04.457Z,60.17
2023-05-04T19:15:54.385Z,60.17
2023-05-04T19:19:24.408Z,60.17
2023-05-04T19:23:33.056Z,60.54
2023-05-04T19:26:13.310Z,60.81
2023-05-04T19:29:27.288Z,60.87
2023-05-04T19:33:06.963Z,61.48
2023-05-04T19:36:48.767Z,61.83
2023-05-04T19:40:18.912Z,62.29
2023-05-04T19:43:27.053Z,62.54
2023-05-04T19:46:35.929Z,62.82
2023-05-04T19:49:55.733Z,63.06
2023-05-04T19:52:53.082Z,63.27
2023-05-04T19:55:51.252Z,63.41
2023-05-04T19:58:30.084Z,63.36
2023-05-04T20:02:18.642Z,63.24
2023-05-04T20:06:06.551Z,63.39
2023-05-04T20:09:24.093Z,63.23
2023-05-04T20:13:14.054Z,63.28
2023-05-04T20:16:55.931Z,63.40
2023-05-04T20:20:20.558Z,63.51
2023-05-04T20:24:13.591Z,63.42
2023-05-04T20:27:48.455Z,63.58
2023-05-04T20:31:36.011Z,63.74
2023-05-04T20:35:25.828Z,63.78
2023-05-04T20:39:20.863Z,63.60
2023-05-04T20:43:28.338Z,63.61
2023-05-04T20:47:19.181Z,63.86
2023-05-04T20:51:28.563Z,63.84
2023-05-04T20:55:28.698Z,63.70
2023-05-04T20:59:21.487Z,63.44
2023-05-04T21:03:03.120Z,63.04
2023-05-04T21:06:55.696Z,62.68
2023-05-04T21:10:57.693Z,62.45
2023-05-04T21:14:52.565Z,61.98
2023-05-04T21:18:27.101Z,61.87
2023-05-04T21:22:36.541Z,61.77
2023-05-04T21:26:21.923Z,61.62
2023-05-04T21:30:21.539Z,61.28
2023-05-04T21:34:03.985Z,60.95
2023-05-04T21:37:59.515Z,60.92
2023-05-04T21:41:59.534Z,60.69
2023-05-04T21:45:54.643Z,60.47
2023-05-04T21:49:56.501Z,60.43
2023-05-04T21:53:59.132Z,60.15
2023-05-04T21:57:42.701Z,60.00
2023-05-04T22:01:26.136Z,58.68
2023-05-04T22:05:25.054Z,57.91
2023-05-04T22:09:25.215Z,58.11
2023-05-04T22:13:27.603Z,58.63
2023-05-04T22:17:15.093Z,58.68
2023-05-04T22:21:05.761Z,59.31
2023-05-04T22:24:33.358Z,59.67
2023-05-04T22:28:06.366Z,59.80
2023-05-04T22:31:38.649Z,60.01
2023-05-04T22:35:38.244Z,60.42
2023-05-04T22:39:47.678Z,60.79
2023-05-04T22:43:57.121Z,60.95
2023-05-04T22:47:51.939Z,61.27
2023-05-04T22:51:37.338Z,62.68
2023-05-04T22:55:23.721Z,63.39
2023-05-04T22:58:56.902Z,63.40
2023-05-04T23:03:01.027Z,63.35
2023-05-04T23:06:47.252Z,62.91
2023-05-04T23:10:21.612Z,62.58
2023-05-04T23:14:24.935Z,62.32
2023-05-04T23:18:02.592Z,62.29
2023-05-04T23:21:40.060Z,62.29
2023-05-04T23:35:47.444Z,62.41
2023-05-04T23:39:37.984Z,62.61
2023-05-04T23:43:43.235Z,63.01
2023-05-04T23:47:52.866Z,63.46
2023-05-04T23:51:53.766Z,63.21
2023-05-04T23:55:50.243Z,63.76
2023-05-04T23:59:39.682Z,63.95
